Alpine Village, Colorado
Current Conditions -  °F | °C
As of 4:54 AM on Monday 24 Nov 2014 (Local Time) from K7BM Reporting Station
Overcast Overcast  
Wind Chill: -3°   Ceiling: 10000
Heat Index: 18°   Visibility: 10mi
Dew Point:   Wind: 33mph
Humidity: 45%   Direction: 280°W
Pressure: 29.86"   Gusts: 47mph
Location:  38.7194°N, 106.276°W
Report Text: K7BM 241154Z AUTO 28029G41KT 10SM SCT065 SCT080 OVC100 M08/M18 A2986 RMK AO2
Loading
Personal Weather Stations






























Interactive Weather Map New forecast layout! Learn more

10-Day Weather Forecast

Advertisements
Track Severe Weather on mobile